Time;durP1;ratioP1;P1;durP2;ratioP2;P2;SDS_P1;SDS_P2;PMS_P1;PMS_P2;Temp;Humidity;BMP_temperature;BMP_pressure;BME280_temperature;BME280_humidity;BME280_pressure;Samples;Min_cycle;Max_cycle;Signal;HPM_P1;HPM_P2
2023/04/07 13:11:45;;;;;;;12.97;11.63;;;;;;;15.53;36.70;96777.13;4929483;28;20442;-68
2023/04/07 13:14:13;;;;;;;11.97;10.87;;;;;;;16.23;35.09;96771.44;4922606;28;20208;-68
2023/04/07 13:16:41;;;;;;;11.80;10.80;;;;;;;16.73;36.76;96760.28;4940819;28;21008;-68
2023/04/07 13:19:09;;;;;;;12.30;11.30;;;;;;;17.20;34.93;96767.44;4976372;28;20859;-69
2023/04/07 13:21:36;;;;;;;12.20;11.20;;;;;;;17.79;34.44;96758.38;4966159;28;20322;-69
2023/04/07 13:24:07;;;;;;;12.53;11.43;;;;;;;18.05;33.12;96760.72;4955755;28;20211;-69
2023/04/07 13:26:35;;;;;;;12.73;11.60;;;;;;;18.21;33.61;96753.75;4952576;28;20225;-67
2023/04/07 13:29:03;;;;;;;18.40;16.70;;;;;;;18.23;33.37;96748.97;4913930;28;20217;-66
2023/04/07 13:31:31;;;;;;;15.70;14.30;;;;;;;18.52;32.72;96741.63;4954837;28;20232;-66
2023/04/07 13:33:59;;;;;;;11.77;10.67;;;;;;;19.04;32.11;96745.00;4971845;28;20197;-66
2023/04/07 13:36:27;;;;;;;12.27;11.17;;;;;;;19.37;31.61;96748.63;4953654;28;20220;-65
2023/04/07 13:38:55;;;;;;;12.50;11.50;;;;;;;20.21;32.50;96748.38;4949352;28;20215;-66
2023/04/07 13:41:23;;;;;;;12.67;11.47;;;;;;;20.52;29.75;96737.84;4948403;28;20246;-66
2023/04/07 13:43:51;;;;;;;13.43;12.23;;;;;;;20.68;30.20;96743.34;4944349;28;20215;-66
2023/04/07 13:46:20;;;;;;;12.17;11.13;;;;;;;20.78;29.44;96739.88;4934456;28;20208;-68
2023/04/07 13:48:55;;;;;;;12.43;11.20;;;;;;;20.76;29.35;96737.47;4969376;28;20211;-67
2023/04/07 13:51:23;;;;;;;13.17;12.00;;;;;;;20.68;30.74;96735.25;4970812;28;20227;-68
2023/04/07 13:53:51;;;;;;;11.83;10.83;;;;;;;21.13;30.43;96735.75;4973218;28;20715;-67
2023/04/07 13:56:19;;;;;;;13.27;11.97;;;;;;;21.00;30.59;96725.47;4951108;28;20210;-68
2023/04/07 13:58:46;;;;;;;12.93;11.83;;;;;;;21.35;29.34;96726.69;4949792;28;20212;-66
2023/04/07 14:01:14;;;;;;;11.53;10.43;;;;;;;20.91;30.26;96731.38;4913816;28;20225;-65
2023/04/07 14:03:43;;;;;;;11.47;10.67;;;;;;;20.99;28.08;96729.25;4950569;28;21125;-65
2023/04/07 14:06:11;;;;;;;12.17;11.07;;;;;;;20.80;29.64;96732.38;4976535;28;20774;-66
2023/04/07 14:08:40;;;;;;;11.03;10.03;;;;;;;21.32;29.45;96724.53;4972028;28;20210;-65
2023/04/07 14:11:08;;;;;;;11.53;10.63;;;;;;;20.90;28.31;96737.00;4951914;28;20988;-65
2023/04/07 14:13:37;;;;;;;11.53;10.63;;;;;;;20.35;28.21;96724.53;4953853;28;20203;-65
2023/04/07 14:16:05;;;;;;;11.37;10.43;;;;;;;19.48;28.79;96738.00;4954871;28;20214;-64
2023/04/07 14:18:32;;;;;;;10.67;9.70;;;;;;;19.86;29.91;96733.53;4911672;28;20222;-64
2023/04/07 14:21:02;;;;;;;11.23;10.13;;;;;;;19.66;29.76;96732.28;4969422;28;20230;-64
2023/04/07 14:23:30;;;;;;;12.90;10.50;;;;;;;20.58;29.99;96724.41;4970571;28;20365;-64
2023/04/07 14:26:04;;;;;;;11.70;10.80;;;;;;;20.89;29.30;96728.13;4978465;28;20304;-64
2023/04/07 14:28:32;;;;;;;11.57;10.50;;;;;;;20.08;29.84;96721.94;4948665;28;20220;-64
2023/04/07 14:31:00;;;;;;;11.00;10.10;;;;;;;19.97;31.15;96725.59;4951334;28;20255;-65
2023/04/07 14:33:27;;;;;;;10.67;9.83;;;;;;;19.18;29.15;96728.56;4921391;28;20247;-64
2023/04/07 14:35:56;;;;;;;12.50;10.60;;;;;;;18.09;32.23;96716.28;4972413;28;20202;-65
2023/04/07 14:38:25;;;;;;;11.30;10.20;;;;;;;17.94;32.40;96722.19;4972219;28;20240;-65
2023/04/07 14:40:52;;;;;;;11.07;10.10;;;;;;;17.44;32.28;96715.69;4882672;28;20255;-65
2023/04/07 14:43:20;;;;;;;10.97;9.97;;;;;;;17.59;32.54;96720.50;4924420;28;20580;-65
2023/04/07 14:45:54;;;;;;;11.03;10.00;;;;;;;17.71;30.75;96723.13;4941190;28;20209;-66
2023/04/07 14:48:23;;;;;;;10.07;9.27;;;;;;;17.14;31.51;96716.72;4938814;28;20216;-66
2023/04/07 14:50:51;;;;;;;11.33;10.30;;;;;;;16.24;33.32;96712.38;4953871;28;20232;-67
2023/04/07 14:53:36;;;;;;;9.67;8.73;;;;;;;15.75;35.47;96717.88;4975772;28;20795;-67
2023/04/07 14:56:04;;;;;;;10.53;9.73;;;;;;;15.82;35.15;96707.91;4940588;28;20352;-66
2023/04/07 14:58:32;;;;;;;10.73;9.73;;;;;;;15.68;33.32;96723.31;4952426;28;20229;-66
2023/04/07 15:00:59;;;;;;;10.80;9.90;;;;;;;15.41;35.48;96715.66;4944068;28;21152;-65
2023/04/07 15:03:28;;;;;;;9.33;8.63;;;;;;;14.80;35.52;96720.13;4965230;28;20201;-65
2023/04/07 15:05:56;;;;;;;9.33;8.57;;;;;;;14.51;34.98;96719.78;4903928;28;20214;-67
2023/04/07 15:08:24;;;;;;;10.13;9.13;;;;;;;13.87;36.57;96718.06;4959540;28;20217;-67
2023/04/07 15:10:53;;;;;;;8.80;8.00;;;;;;;13.48;36.29;96727.97;4953500;28;20229;-69
2023/04/07 15:13:21;;;;;;;9.17;8.37;;;;;;;13.10;37.43;96716.25;4955683;28;20229;-67
2023/04/07 15:15:48;;;;;;;8.90;8.10;;;;;;;12.77;38.65;96722.53;4972293;28;20205;-66
2023/04/07 15:18:16;;;;;;;8.97;8.07;;;;;;;12.71;38.27;96716.19;4944595;28;21167;-66
2023/04/07 15:20:44;;;;;;;8.97;8.17;;;;;;;12.61;38.33;96711.28;4919990;28;20701;-67
2023/04/07 15:23:13;;;;;;;9.37;8.57;;;;;;;12.47;38.16;96718.47;4972549;28;20295;-67
2023/04/07 15:25:41;;;;;;;7.50;6.90;;;;;;;12.41;38.97;96717.50;4972818;28;20242;-66
2023/04/07 15:28:10;;;;;;;7.47;6.83;;;;;;;12.52;39.79;96721.34;4953320;28;23092;-65
2023/04/07 15:30:37;;;;;;;7.93;7.23;;;;;;;12.69;39.33;96719.06;4972458;28;21044;-65
2023/04/07 15:33:05;;;;;;;7.87;7.27;;;;;;;12.69;37.96;96721.72;4948063;28;20220;-65
2023/04/07 15:35:33;;;;;;;8.30;7.20;;;;;;;12.82;38.65;96714.72;4924895;28;20323;-65
2023/04/07 15:38:01;;;;;;;7.77;6.93;;;;;;;12.95;37.97;96719.97;4970791;28;20932;-65
2023/04/07 15:40:28;;;;;;;8.03;7.33;;;;;;;13.12;37.75;96727.50;4980652;28;20216;-66
2023/04/07 15:42:56;;;;;;;8.10;7.50;;;;;;;13.17;38.42;96712.53;4959468;28;20216;-67
2023/04/07 15:45:25;;;;;;;7.97;7.27;;;;;;;13.25;38.33;96723.94;4980315;28;20213;-66
2023/04/07 15:47:54;;;;;;;8.17;7.53;;;;;;;12.79;36.24;96715.94;4956009;28;20332;-67
2023/04/07 15:50:22;;;;;;;7.73;6.93;;;;;;;12.90;36.32;96724.31;4929942;28;21033;-66
2023/04/07 15:52:49;;;;;;;8.00;7.30;;;;;;;12.86;37.20;96729.22;4933658;28;20328;-65
2023/04/07 15:55:17;;;;;;;9.40;7.60;;;;;;;12.88;37.90;96722.69;4961642;28;20236;-65
2023/04/07 15:57:45;;;;;;;8.17;7.47;;;;;;;12.80;37.39;96733.53;4950419;28;20220;-67
2023/04/07 16:00:13;;;;;;;8.27;7.47;;;;;;;12.70;36.95;96731.34;4939775;28;20206;-65
2023/04/07 16:02:43;;;;;;;7.27;6.67;;;;;;;12.65;36.53;96725.81;4960938;28;20581;-66
2023/04/07 16:05:11;;;;;;;7.90;7.20;;;;;;;12.41;36.83;96728.13;4910401;28;20348;-65
2023/04/07 16:07:39;;;;;;;6.77;6.20;;;;;;;12.28;36.87;96723.63;4939166;28;20245;-65
2023/04/07 16:10:08;;;;;;;7.13;6.37;;;;;;;12.10;38.18;96726.91;4953491;28;20217;-65
2023/04/07 16:12:36;;;;;;;6.33;5.80;;;;;;;11.99;38.99;96730.97;4959861;28;20986;-65
2023/04/07 16:15:05;;;;;;;7.20;6.70;;;;;;;11.78;37.40;96728.50;4912834;28;20977;-64
2023/04/07 16:17:33;;;;;;;7.43;6.83;;;;;;;11.57;36.89;96730.31;4959864;28;20288;-63
2023/04/07 16:20:03;;;;;;;7.23;6.60;;;;;;;11.38;37.30;96730.09;4936292;28;21067;-66
2023/04/07 16:22:31;;;;;;;7.30;6.60;;;;;;;11.25;37.97;96738.81;4874857;28;20263;-67
2023/04/07 16:24:59;;;;;;;7.87;7.27;;;;;;;11.06;39.02;96734.25;4938122;28;20197;-65
2023/04/07 16:27:27;;;;;;;7.80;7.10;;;;;;;10.90;38.94;96736.22;4929209;28;20210;-66
2023/04/07 16:29:54;;;;;;;7.30;6.60;;;;;;;10.80;39.25;96741.88;4905672;28;20229;-65
2023/04/07 16:32:22;;;;;;;7.10;6.50;;;;;;;10.70;39.43;96738.78;4955400;28;20717;-64
2023/04/07 16:34:50;;;;;;;6.80;6.30;;;;;;;10.60;39.60;96740.94;4920294;28;20324;-65
2023/04/07 16:37:19;;;;;;;7.10;6.50;;;;;;;10.53;40.76;96740.91;4925927;28;20208;-65
2023/04/07 16:39:46;;;;;;;6.90;6.40;;;;;;;10.44;41.53;96742.09;4937034;28;20489;-66
2023/04/07 16:42:14;;;;;;;7.00;6.30;;;;;;;10.41;41.04;96741.44;4957108;28;20229;-66
2023/04/07 16:44:42;;;;;;;8.27;6.83;;;;;;;10.40;41.86;96749.59;4913366;28;20577;-65
2023/04/07 16:47:09;;;;;;;11.20;9.00;;;;;;;10.35;40.49;96746.69;4954489;28;20220;-65
2023/04/07 16:49:37;;;;;;;7.20;6.60;;;;;;;10.23;40.67;96736.63;4923750;28;20582;-64
2023/04/07 16:52:05;;;;;;;7.50;6.90;;;;;;;10.24;41.74;96758.63;4919721;28;20241;-65
2023/04/07 16:54:35;;;;;;;7.03;6.43;;;;;;;10.19;40.64;96756.53;4914660;28;20256;-65
2023/04/07 16:57:03;;;;;;;7.03;6.37;;;;;;;10.19;41.12;96761.03;4959436;28;20206;-65
2023/04/07 16:59:31;;;;;;;6.70;6.20;;;;;;;10.17;41.68;96766.50;4933328;28;20270;-67
2023/04/07 17:01:59;;;;;;;7.77;5.93;;;;;;;10.08;41.71;96760.53;4934633;28;20233;-67
2023/04/07 17:04:27;;;;;;;6.93;6.40;;;;;;;9.97;43.10;96774.28;4952310;28;20194;-64
2023/04/07 17:06:55;;;;;;;7.70;7.10;;;;;;;9.91;42.14;96767.09;4929913;28;20205;-68
2023/04/07 17:09:22;;;;;;;7.43;6.83;;;;;;;9.83;42.64;96773.31;4900332;28;20557;-65
2023/04/07 17:11:51;;;;;;;9.53;8.63;;;;;;;9.68;43.64;96782.16;4957996;28;20226;-66
2023/04/07 17:14:20;;;;;;;8.73;7.90;;;;;;;9.61;43.52;96769.84;4934158;28;20260;-68
2023/04/07 17:16:48;;;;;;;7.27;6.70;;;;;;;9.49;44.36;96780.13;4932406;28;20217;-67
2023/04/07 17:19:16;;;;;;;7.40;6.80;;;;;;;9.34;44.68;96780.16;4954473;28;20202;-66
2023/04/07 17:21:43;;;;;;;6.97;6.37;;;;;;;9.21;45.35;96784.28;4919853;28;20229;-65
2023/04/07 17:24:14;;;;;;;9.07;6.00;;;;;;;9.20;45.32;96785.28;4896698;28;20209;-65
2023/04/07 17:26:42;;;;;;;7.07;6.57;;;;;;;9.05;45.76;96787.13;4953155;28;20209;-66
2023/04/07 17:29:11;;;;;;;7.43;6.67;;;;;;;9.02;45.24;96795.44;4952219;28;20344;-65
2023/04/07 17:31:38;;;;;;;8.40;7.60;;;;;;;8.90;46.44;96790.63;4914059;28;21791;-64
2023/04/07 17:34:06;;;;;;;7.63;6.83;;;;;;;8.76;46.97;96789.63;4951807;28;20232;-64
2023/04/07 17:36:36;;;;;;;7.50;6.80;;;;;;;8.61;48.29;96799.34;4931130;28;20600;-61
2023/04/07 17:39:04;;;;;;;7.83;7.13;;;;;;;8.33;50.22;96800.72;4924563;28;20214;-63
2023/04/07 17:41:33;;;;;;;7.67;7.07;;;;;;;8.11;53.73;96795.28;4932883;28;20367;-65
2023/04/07 17:44:01;;;;;;;8.73;7.93;;;;;;;8.03;51.22;96792.72;4952178;28;20202;-66
2023/04/07 17:46:30;;;;;;;9.53;8.73;;;;;;;7.91;50.84;96802.06;4924002;28;21042;-66
2023/04/07 17:48:58;;;;;;;9.67;8.77;;;;;;;7.85;50.91;96802.78;4933023;28;20221;-66
2023/04/07 17:51:26;;;;;;;10.70;9.37;;;;;;;7.74;51.59;96818.00;4946510;28;20850;-65
2023/04/07 17:53:55;;;;;;;10.90;9.73;;;;;;;7.67;52.33;96817.06;4927742;28;20237;-66
2023/04/07 17:56:23;;;;;;;11.20;10.10;;;;;;;7.53;54.64;96821.25;4888965;28;20654;-66
2023/04/07 17:58:51;;;;;;;10.67;9.57;;;;;;;7.38;53.83;96829.91;4957329;28;20224;-66
2023/04/07 18:01:18;;;;;;;10.43;9.20;;;;;;;7.30;54.39;96826.47;4948860;28;20225;-66
2023/04/07 18:03:48;;;;;;;9.73;8.80;;;;;;;7.22;54.88;96830.78;4914461;28;20575;-66
2023/04/07 18:06:17;;;;;;;10.00;9.10;;;;;;;7.15;54.56;96834.28;4949531;28;20205;-66
2023/04/07 18:08:46;;;;;;;9.53;8.73;;;;;;;7.07;57.64;96835.16;4922006;28;20493;-66
2023/04/07 18:11:13;;;;;;;9.53;8.63;;;;;;;6.83;61.17;96833.41;4905898;28;20232;-65
2023/04/07 18:13:41;;;;;;;9.57;8.77;;;;;;;6.55;63.93;96829.34;4954415;28;20875;-64
2023/04/07 18:16:10;;;;;;;9.53;8.73;;;;;;;6.38;64.36;96839.06;4949378;28;20352;-65
2023/04/07 18:18:38;;;;;;;10.10;9.23;;;;;;;6.16;68.24;96843.19;4930234;28;20209;-65
2023/04/07 18:21:07;;;;;;;10.13;9.13;;;;;;;5.97;72.51;96837.25;4933231;28;20251;-67
2023/04/07 18:23:35;;;;;;;9.57;8.60;;;;;;;5.87;73.75;96845.28;4917498;28;20414;-65
2023/04/07 18:26:05;;;;;;;10.10;9.10;;;;;;;5.76;77.17;96851.66;4947221;28;20471;-65
2023/04/07 18:28:34;;;;;;;10.00;9.07;;;;;;;5.59;78.42;96855.25;4926610;28;20413;-65
2023/04/07 18:31:03;;;;;;;10.37;9.23;;;;;;;5.38;81.35;96851.22;4951487;28;20268;-65
2023/04/07 18:33:31;;;;;;;10.87;9.77;;;;;;;5.28;84.12;96856.59;4931230;28;20716;-65
2023/04/07 18:36:00;;;;;;;10.77;8.73;;;;;;;5.19;85.85;96863.66;4952228;28;20301;-65
2023/04/07 18:38:29;;;;;;;10.47;9.47;;;;;;;5.12;85.03;96864.44;4924777;28;20699;-65
2023/04/07 18:40:57;;;;;;;9.80;8.90;;;;;;;5.01;88.51;96868.16;4956119;28;20239;-66
2023/04/07 18:43:25;;;;;;;10.17;9.27;;;;;;;4.96;86.65;96866.00;4920752;28;20963;-65
2023/04/07 18:45:53;;;;;;;8.93;8.23;;;;;;;4.87;90.90;96869.56;4958152;28;20201;-65
2023/04/07 18:48:21;;;;;;;10.13;9.03;;;;;;;4.76;91.45;96866.22;4929556;28;20263;-65
2023/04/07 18:50:50;;;;;;;9.97;9.07;;;;;;;4.68;90.49;96873.22;4937467;28;20233;-65
2023/04/07 18:53:17;;;;;;;9.27;8.47;;;;;;;4.68;90.74;96858.31;4946564;28;21451;-64
2023/04/07 18:55:47;;;;;;;9.43;8.47;;;;;;;4.68;91.88;96875.84;4930898;28;20236;-65
2023/04/07 18:58:15;;;;;;;12.33;10.97;;;;;;;4.66;94.16;96875.16;4917794;28;20237;-66
2023/04/07 19:00:43;;;;;;;11.90;9.33;;;;;;;4.66;93.45;96878.63;4956642;28;20587;-65
2023/04/07 19:03:11;;;;;;;8.37;7.53;;;;;;;4.70;93.69;96882.59;4942616;28;20205;-65
2023/04/07 19:05:40;;;;;;;8.13;7.43;;;;;;;4.70;89.90;96894.88;4936849;28;20214;-65
2023/04/07 19:08:08;;;;;;;11.27;8.53;;;;;;;4.58;90.22;96891.69;4957944;28;20217;-65
2023/04/07 19:10:36;;;;;;;9.03;8.10;;;;;;;4.45;90.90;96887.66;4926164;28;20947;-65
2023/04/07 19:13:05;;;;;;;10.10;8.50;;;;;;;4.13;91.73;96862.00;4956360;28;20250;-64
2023/04/07 19:15:37;;;;;;;8.23;7.53;;;;;;;4.20;93.23;96891.88;4939136;28;20234;-65
2023/04/07 19:18:06;;;;;;;10.10;8.57;;;;;;;4.13;94.53;96891.66;4956753;28;20251;-64
2023/04/07 19:20:34;;;;;;;9.70;8.70;;;;;;;4.08;96.49;96903.59;4919228;28;20861;-64
2023/04/07 19:23:02;;;;;;;9.37;8.17;;;;;;;4.02;97.03;96902.38;4958160;28;21151;-65
2023/04/07 19:25:30;;;;;;;10.43;9.37;;;;;;;3.94;99.85;96910.16;4931446;28;20828;-65
2023/04/07 19:27:59;;;;;;;9.47;8.67;;;;;;;3.91;96.59;96904.25;4978229;28;20478;-66
2023/04/07 19:30:28;;;;;;;9.60;8.77;;;;;;;3.90;97.50;96907.00;4922035;28;20359;-64
2023/04/07 19:32:56;;;;;;;9.53;8.43;;;;;;;3.84;98.83;96908.44;4983891;28;20208;-66
2023/04/07 19:35:24;;;;;;;9.97;9.03;;;;;;;3.81;97.37;96915.75;4954012;28;21185;-66
2023/04/07 19:37:52;;;;;;;10.33;9.43;;;;;;;3.76;97.69;96909.16;4957904;28;20695;-66
2023/04/07 19:40:20;;;;;;;10.00;9.10;;;;;;;3.70;100.00;96916.78;4976278;28;21438;-67
2023/04/07 19:42:48;;;;;;;9.63;8.73;;;;;;;3.64;100.00;96922.63;4943348;28;20410;-65
2023/04/07 19:45:16;;;;;;;11.00;9.90;;;;;;;3.60;100.00;96929.97;4938034;28;20656;-65
2023/04/07 19:47:44;;;;;;;10.17;9.20;;;;;;;3.72;97.80;96931.41;4953274;28;20209;-64
2023/04/07 19:50:13;;;;;;;10.87;9.70;;;;;;;3.67;97.06;96932.81;4978082;28;20237;-65
2023/04/07 19:52:42;;;;;;;10.43;9.50;;;;;;;3.80;91.35;96945.56;4928526;28;20859;-67
2023/04/07 19:55:09;;;;;;;11.43;10.23;;;;;;;3.83;91.03;96942.66;4956481;28;20440;-66
2023/04/07 19:57:39;;;;;;;12.50;11.10;;;;;;;3.73;90.44;96942.69;4943971;28;20210;-66
2023/04/07 20:00:08;;;;;;;14.07;12.77;;;;;;;3.69;91.81;96947.44;4944027;28;20227;-65
2023/04/07 20:02:36;;;;;;;12.40;11.10;;;;;;;3.56;96.15;96944.31;4977374;28;20339;-66
2023/04/07 20:05:06;;;;;;;16.07;14.47;;;;;;;3.56;95.31;96945.13;4976967;28;20586;-65
2023/04/07 20:07:34;;;;;;;19.00;17.00;;;;;;;3.56;94.98;96947.75;4955293;28;20227;-66
2023/04/07 20:10:02;;;;;;;18.03;16.10;;;;;;;3.55;95.75;96946.13;4978749;28;20476;-66
2023/04/07 20:12:30;;;;;;;19.27;17.37;;;;;;;3.57;95.45;96948.56;4950294;28;20224;-65
2023/04/07 20:14:58;;;;;;;19.47;17.57;;;;;;;3.57;97.90;96957.28;4934725;28;20221;-65
2023/04/07 20:17:26;;;;;;;23.13;20.93;;;;;;;3.61;97.79;96966.47;4974261;28;20589;-65
2023/04/07 20:19:54;;;;;;;20.33;18.23;;;;;;;3.65;98.13;96968.81;4978115;28;20418;-67
2023/04/07 20:22:23;;;;;;;18.77;16.87;;;;;;;3.78;96.61;96958.00;4974962;28;20220;-67
2023/04/07 20:24:51;;;;;;;15.53;13.93;;;;;;;3.86;94.71;96958.91;4962153;28;20755;-64
2023/04/07 20:27:18;;;;;;;14.80;13.43;;;;;;;4.02;93.37;96958.28;4948286;28;20481;-66
2023/04/07 20:29:46;;;;;;;14.20;13.00;;;;;;;4.09;93.42;96966.34;4975300;28;20426;-65
2023/04/07 20:32:14;;;;;;;11.60;10.40;;;;;;;4.12;92.63;96952.13;4935873;28;20232;-65
2023/04/07 20:34:44;;;;;;;11.20;10.03;;;;;;;4.23;92.80;96966.81;4978704;28;20806;-65
2023/04/07 20:37:12;;;;;;;9.67;8.77;;;;;;;4.41;88.69;96970.25;4971161;28;20696;-63
2023/04/07 20:39:41;;;;;;;9.10;8.20;;;;;;;4.45;87.13;96973.44;4954686;28;20327;-64
2023/04/07 20:42:09;;;;;;;8.43;7.63;;;;;;;4.40;87.53;96973.06;4943945;28;20224;-64
2023/04/07 20:44:37;;;;;;;10.37;9.10;;;;;;;4.47;86.29;96977.53;4973128;28;20214;-65
2023/04/07 20:47:07;;;;;;;9.40;8.60;;;;;;;4.48;85.91;96970.50;4944243;28;20224;-65
2023/04/07 20:49:35;;;;;;;10.53;9.50;;;;;;;4.49;86.32;96980.00;4979549;28;20228;-66
2023/04/07 20:52:03;;;;;;;9.10;8.30;;;;;;;4.49;86.70;96980.81;4975772;28;20648;-65
2023/04/07 20:54:31;;;;;;;9.27;8.47;;;;;;;4.46;87.76;96983.75;4964087;28;20239;-65
2023/04/07 20:57:00;;;;;;;9.73;8.83;;;;;;;4.40;87.94;96975.69;4941605;28;20795;-64
2023/04/07 20:59:29;;;;;;;10.07;9.13;;;;;;;4.48;86.62;96984.41;4976390;28;20234;-65
2023/04/07 21:01:56;;;;;;;8.83;8.03;;;;;;;4.44;88.41;96984.91;4940062;28;20248;-65
2023/04/07 21:04:24;;;;;;;10.27;9.37;;;;;;;4.42;88.80;96989.47;4974499;28;20615;-65
2023/04/07 21:06:52;;;;;;;9.13;8.23;;;;;;;4.44;88.49;96992.75;4972480;28;20665;-64
2023/04/07 21:09:20;;;;;;;10.07;9.03;;;;;;;4.41;90.19;96993.06;4973057;28;20219;-66
2023/04/07 21:11:47;;;;;;;9.70;8.80;;;;;;;4.37;90.86;96989.91;4955125;28;20525;-65
2023/04/07 21:14:16;;;;;;;9.90;9.10;;;;;;;4.34;93.71;96992.81;4941655;28;20213;-65
2023/04/07 21:16:44;;;;;;;13.10;11.67;;;;;;;4.23;94.09;96991.25;4937611;28;20491;-64
2023/04/07 21:19:12;;;;;;;16.80;14.73;;;;;;;4.20;94.68;96991.53;4974846;28;21074;-65
2023/04/07 21:21:40;;;;;;;15.80;14.23;;;;;;;4.18;95.71;96994.31;4968907;28;20443;-64
2023/04/07 21:24:07;;;;;;;17.03;15.37;;;;;;;4.14;95.28;96990.31;4975477;28;20567;-64
2023/04/07 21:26:35;;;;;;;14.47;13.07;;;;;;;4.15;95.77;96993.78;4954380;28;20229;-65
2023/04/07 21:29:03;;;;;;;13.40;11.97;;;;;;;4.14;96.15;96994.75;4944478;28;20328;-64
2023/04/07 21:31:38;;;;;;;13.20;11.97;;;;;;;4.12;96.40;96999.31;4961030;28;20227;-65
2023/04/07 21:34:05;;;;;;;13.67;12.37;;;;;;;4.12;97.03;96997.50;4973793;28;20207;-65
2023/04/07 21:36:33;;;;;;;12.90;11.70;;;;;;;4.04;97.40;96984.31;4969164;28;20716;-65
2023/04/07 21:39:01;;;;;;;11.70;10.60;;;;;;;4.16;96.77;96998.88;4978463;28;20203;-65
2023/04/07 21:41:28;;;;;;;11.87;10.87;;;;;;;4.14;96.19;96995.56;4952331;28;20778;-66
2023/04/07 21:43:56;;;;;;;10.43;9.40;;;;;;;4.14;96.61;96998.19;4976588;28;20536;-64
2023/04/07 21:46:25;;;;;;;11.17;10.17;;;;;;;4.15;97.02;96993.78;4928434;28;20241;-65
2023/04/07 21:48:55;;;;;;;12.03;10.90;;;;;;;4.16;96.69;96996.25;4950384;28;20450;-65
2023/04/07 21:51:23;;;;;;;10.90;9.80;;;;;;;4.14;98.08;96992.94;4971750;28;20587;-65
2023/04/07 21:53:51;;;;;;;11.17;10.27;;;;;;;3.97;97.55;96965.72;4966498;28;20205;-65
2023/04/07 21:56:18;;;;;;;12.20;11.00;;;;;;;4.13;98.02;96999.16;4977707;28;20205;-64
2023/04/07 21:58:46;;;;;;;11.60;10.53;;;;;;;4.12;97.74;96996.72;4954162;28;20719;-65
2023/04/07 22:01:14;;;;;;;11.47;10.30;;;;;;;4.12;97.01;97005.38;4944829;28;20712;-65
2023/04/07 22:03:43;;;;;;;13.37;11.47;;;;;;;4.10;98.03;96996.84;4922792;28;20801;-65
2023/04/07 22:06:12;;;;;;;10.87;9.83;;;;;;;4.12;97.24;96997.50;4974802;28;20557;-65
2023/04/07 22:08:40;;;;;;;10.70;9.77;;;;;;;4.17;96.32;97002.31;4973065;28;20675;-65
2023/04/07 22:11:27;;;;;;;9.73;8.93;;;;;;;4.18;95.41;97001.34;4974672;28;20739;-66
2023/04/07 22:13:54;;;;;;;9.50;8.60;;;;;;;4.20;95.82;97002.03;4954950;28;20327;-68
2023/04/07 22:16:28;;;;;;;9.93;9.03;;;;;;;4.20;95.25;97000.25;4936581;28;20347;-65
2023/04/07 22:18:59;;;;;;;10.03;9.13;;;;;;;4.20;95.32;97000.25;4963762;28;20281;-64
2023/04/07 22:21:28;;;;;;;10.60;9.63;;;;;;;4.09;95.33;96976.84;4970765;28;20344;-65
2023/04/07 22:23:56;;;;;;;11.10;10.00;;;;;;;4.24;94.84;96994.69;4974781;28;20218;-65
2023/04/07 22:26:23;;;;;;;12.67;11.47;;;;;;;4.27;94.39;97007.50;4971565;28;20232;-65
2023/04/07 22:28:51;;;;;;;12.13;11.03;;;;;;;4.26;93.66;96993.56;4958617;28;20817;-65
2023/04/07 22:31:19;;;;;;;11.13;10.03;;;;;;;4.26;94.97;97011.91;4938447;28;20648;-65
2023/04/07 22:33:46;;;;;;;9.97;9.07;;;;;;;4.25;94.61;97009.47;4930864;28;20247;-66
2023/04/07 22:36:14;;;;;;;9.93;9.13;;;;;;;4.25;94.12;97002.41;4973432;28;20243;-66
2023/04/07 22:38:43;;;;;;;10.30;9.17;;;;;;;4.23;94.93;96999.09;4974970;28;20300;-65
2023/04/07 22:41:11;;;;;;;10.13;9.13;;;;;;;4.25;94.98;97010.28;4971531;28;20227;-66
2023/04/07 22:43:39;;;;;;;10.67;9.67;;;;;;;4.24;95.38;97008.63;4953372;28;20846;-64
2023/04/07 22:46:06;;;;;;;12.97;11.53;;;;;;;4.23;94.42;97006.16;4947578;28;20574;-65
2023/04/07 22:48:38;;;;;;;13.20;10.33;;;;;;;4.08;94.03;96993.53;4937200;28;20201;-66
2023/04/07 22:51:06;;;;;;;12.43;11.17;;;;;;;4.18;94.43;97002.19;4974038;28;20236;-64
2023/04/07 22:53:34;;;;;;;12.40;10.13;;;;;;;4.17;94.00;97002.31;4970209;28;20213;-65
2023/04/07 22:56:03;;;;;;;11.77;10.67;;;;;;;4.19;94.78;97010.88;4975525;28;20205;-65
2023/04/07 22:58:30;;;;;;;10.37;9.37;;;;;;;4.18;95.36;97007.44;4968750;28;21256;-65
2023/04/07 23:00:58;;;;;;;9.83;9.00;;;;;;;4.18;95.79;97003.97;4949086;28;20247;-65
2023/04/07 23:03:30;;;;;;;10.00;9.07;;;;;;;4.14;95.77;97006.06;4925351;28;20209;-64
2023/04/07 23:06:00;;;;;;;10.07;9.17;;;;;;;4.16;96.73;97016.41;4966301;28;20472;-63
2023/04/07 23:08:28;;;;;;;11.10;8.23;;;;;;;4.13;96.91;97011.47;4945004;28;20213;-65
2023/04/07 23:10:56;;;;;;;9.20;8.40;;;;;;;4.12;98.03;97005.38;4975335;28;20788;-64
2023/04/07 23:13:25;;;;;;;9.83;8.87;;;;;;;4.13;98.15;97011.47;4973414;28;20384;-65
2023/04/07 23:15:53;;;;;;;9.57;8.57;;;;;;;4.15;98.41;97014.75;4953833;28;20825;-65
2023/04/07 23:18:21;;;;;;;11.13;8.83;;;;;;;4.14;98.27;97010.50;4943146;28;20220;-65
2023/04/07 23:20:51;;;;;;;8.80;8.00;;;;;;;4.09;99.38;97012.75;4933304;28;20428;-65
2023/04/07 23:23:19;;;;;;;8.57;7.87;;;;;;;4.03;99.75;97006.28;4970121;28;20476;-65
2023/04/07 23:25:46;;;;;;;9.47;8.50;;;;;;;4.04;100.00;97010.53;4974843;28;20197;-65
2023/04/07 23:28:14;;;;;;;11.63;7.60;;;;;;;4.06;100.00;97011.22;4973123;28;20226;-64
2023/04/07 23:30:43;;;;;;;8.30;7.37;;;;;;;4.01;100.00;97011.69;4970036;28;20526;-65
2023/04/07 23:33:11;;;;;;;9.00;8.17;;;;;;;4.00;100.00;97014.44;4926571;28;20243;-65
2023/04/07 23:35:39;;;;;;;8.87;8.07;;;;;;;4.02;100.00;97015.09;4941232;28;20820;-66
2023/04/07 23:38:07;;;;;;;8.93;8.13;;;;;;;4.03;100.00;97022.84;4970272;28;20240;-65
2023/04/07 23:40:35;;;;;;;8.60;7.90;;;;;;;4.04;100.00;97007.91;4969927;28;20392;-66
2023/04/07 23:43:03;;;;;;;8.97;8.07;;;;;;;4.01;100.00;97013.47;4972226;28;20212;-67
2023/04/07 23:45:30;;;;;;;9.07;7.93;;;;;;;4.01;100.00;97008.22;4971042;28;20209;-67
2023/04/07 23:47:59;;;;;;;8.70;8.00;;;;;;;4.01;99.83;97006.44;4941304;28;20538;-66
2023/04/07 23:50:27;;;;;;;9.40;8.60;;;;;;;3.98;99.64;97005.88;4971448;28;21027;-66
2023/04/07 23:52:56;;;;;;;9.77;8.87;;;;;;;3.98;98.72;97003.28;4940501;28;20383;-65
2023/04/07 23:55:24;;;;;;;8.37;7.77;;;;;;;3.97;98.29;97006.88;4978196;28;20211;-65
2023/04/07 23:57:51;;;;;;;8.87;8.07;;;;;;;3.95;98.65;97003.56;4977569;28;20589;-64
